sensor_id;sensor_type;location;lat;lon;timestamp;P1;durP1;ratioP1;P2;durP2;ratioP2
2850;SDS011;1433;49.976;8.342;2024-02-16T00:01:23;6.07;;;5.40;;
2850;SDS011;1433;49.976;8.342;2024-02-16T00:03:49;9.20;;;7.10;;
2850;SDS011;1433;49.976;8.342;2024-02-16T00:06:15;10.70;;;7.43;;
2850;SDS011;1433;49.976;8.342;2024-02-16T00:08:41;7.03;;;5.33;;
2850;SDS011;1433;49.976;8.342;2024-02-16T00:11:06;8.80;;;4.90;;
2850;SDS011;1433;49.976;8.342;2024-02-16T00:13:32;8.33;;;5.93;;
2850;SDS011;1433;49.976;8.342;2024-02-16T00:15:58;10.07;;;5.37;;
2850;SDS011;1433;49.976;8.342;2024-02-16T00:18:23;9.00;;;5.70;;
2850;SDS011;1433;49.976;8.342;2024-02-16T00:20:49;6.00;;;4.90;;
2850;SDS011;1433;49.976;8.342;2024-02-16T00:23:15;9.33;;;6.10;;
2850;SDS011;1433;49.976;8.342;2024-02-16T00:25:41;9.10;;;5.37;;
2850;SDS011;1433;49.976;8.342;2024-02-16T00:28:07;9.77;;;5.53;;
2850;SDS011;1433;49.976;8.342;2024-02-16T00:30:33;6.87;;;6.00;;
2850;SDS011;1433;49.976;8.342;2024-02-16T00:33:02;5.00;;;4.50;;
2850;SDS011;1433;49.976;8.342;2024-02-16T00:35:28;7.60;;;5.03;;
2850;SDS011;1433;49.976;8.342;2024-02-16T00:37:58;5.90;;;5.07;;
2850;SDS011;1433;49.976;8.342;2024-02-16T00:40:24;7.87;;;6.17;;
2850;SDS011;1433;49.976;8.342;2024-02-16T00:42:51;9.33;;;4.33;;
2850;SDS011;1433;49.976;8.342;2024-02-16T00:45:17;7.67;;;6.07;;
2850;SDS011;1433;49.976;8.342;2024-02-16T00:47:43;8.40;;;5.00;;
2850;SDS011;1433;49.976;8.342;2024-02-16T00:50:11;9.27;;;6.70;;
2850;SDS011;1433;49.976;8.342;2024-02-16T00:52:37;10.37;;;4.90;;
2850;SDS011;1433;49.976;8.342;2024-02-16T00:55:04;5.83;;;5.20;;
2850;SDS011;1433;49.976;8.342;2024-02-16T00:57:30;6.67;;;5.27;;
2850;SDS011;1433;49.976;8.342;2024-02-16T00:59:56;9.97;;;5.63;;
2850;SDS011;1433;49.976;8.342;2024-02-16T01:02:22;7.53;;;4.17;;
2850;SDS011;1433;49.976;8.342;2024-02-16T01:04:47;6.17;;;5.60;;
2850;SDS011;1433;49.976;8.342;2024-02-16T01:07:15;7.57;;;5.60;;
2850;SDS011;1433;49.976;8.342;2024-02-16T01:09:41;7.87;;;4.93;;
2850;SDS011;1433;49.976;8.342;2024-02-16T01:12:06;12.77;;;5.53;;
2850;SDS011;1433;49.976;8.342;2024-02-16T01:14:33;7.03;;;4.70;;
2850;SDS011;1433;49.976;8.342;2024-02-16T01:16:58;10.23;;;5.30;;
2850;SDS011;1433;49.976;8.342;2024-02-16T01:19:24;9.13;;;5.10;;
2850;SDS011;1433;49.976;8.342;2024-02-16T01:21:50;5.30;;;4.80;;
2850;SDS011;1433;49.976;8.342;2024-02-16T01:24:18;7.47;;;5.83;;
2850;SDS011;1433;49.976;8.342;2024-02-16T01:26:46;6.70;;;5.87;;
2850;SDS011;1433;49.976;8.342;2024-02-16T01:29:11;5.43;;;4.40;;
2850;SDS011;1433;49.976;8.342;2024-02-16T01:31:37;6.70;;;4.80;;
2850;SDS011;1433;49.976;8.342;2024-02-16T01:34:03;5.60;;;4.67;;
2850;SDS011;1433;49.976;8.342;2024-02-16T01:36:29;5.77;;;5.20;;
2850;SDS011;1433;49.976;8.342;2024-02-16T01:38:54;4.10;;;3.70;;
2850;SDS011;1433;49.976;8.342;2024-02-16T01:41:20;8.53;;;5.50;;
2850;SDS011;1433;49.976;8.342;2024-02-16T01:43:46;6.97;;;4.47;;
2850;SDS011;1433;49.976;8.342;2024-02-16T01:46:11;8.53;;;4.27;;
2850;SDS011;1433;49.976;8.342;2024-02-16T01:48:37;6.97;;;6.07;;
2850;SDS011;1433;49.976;8.342;2024-02-16T01:51:06;6.30;;;5.70;;
2850;SDS011;1433;49.976;8.342;2024-02-16T01:53:34;6.27;;;5.67;;
2850;SDS011;1433;49.976;8.342;2024-02-16T01:56:01;6.73;;;5.60;;
2850;SDS011;1433;49.976;8.342;2024-02-16T01:58:28;5.47;;;4.93;;
2850;SDS011;1433;49.976;8.342;2024-02-16T02:00:54;6.00;;;5.17;;
2850;SDS011;1433;49.976;8.342;2024-02-16T02:03:20;6.03;;;4.57;;
2850;SDS011;1433;49.976;8.342;2024-02-16T02:05:45;6.10;;;4.03;;
2850;SDS011;1433;49.976;8.342;2024-02-16T02:08:12;5.70;;;4.87;;
2850;SDS011;1433;49.976;8.342;2024-02-16T02:10:38;7.00;;;4.90;;
2850;SDS011;1433;49.976;8.342;2024-02-16T02:13:04;4.93;;;4.30;;
2850;SDS011;1433;49.976;8.342;2024-02-16T02:15:30;5.07;;;4.50;;
2850;SDS011;1433;49.976;8.342;2024-02-16T02:17:56;7.87;;;5.20;;
2850;SDS011;1433;49.976;8.342;2024-02-16T02:20:24;5.13;;;3.97;;
2850;SDS011;1433;49.976;8.342;2024-02-16T02:22:50;6.17;;;5.57;;
2850;SDS011;1433;49.976;8.342;2024-02-16T02:25:16;5.10;;;4.47;;
2850;SDS011;1433;49.976;8.342;2024-02-16T02:27:41;6.40;;;4.63;;
2850;SDS011;1433;49.976;8.342;2024-02-16T02:30:07;5.53;;;4.93;;
2850;SDS011;1433;49.976;8.342;2024-02-16T02:32:33;6.00;;;5.50;;
2850;SDS011;1433;49.976;8.342;2024-02-16T02:35:01;5.50;;;4.90;;
2850;SDS011;1433;49.976;8.342;2024-02-16T02:37:27;6.93;;;4.60;;
2850;SDS011;1433;49.976;8.342;2024-02-16T02:39:52;4.40;;;4.00;;
2850;SDS011;1433;49.976;8.342;2024-02-16T02:42:18;8.00;;;5.40;;
2850;SDS011;1433;49.976;8.342;2024-02-16T02:44:44;5.63;;;4.67;;
2850;SDS011;1433;49.976;8.342;2024-02-16T02:47:15;4.77;;;4.37;;
2850;SDS011;1433;49.976;8.342;2024-02-16T02:49:42;6.73;;;5.27;;
2850;SDS011;1433;49.976;8.342;2024-02-16T02:52:08;4.70;;;4.30;;
2850;SDS011;1433;49.976;8.342;2024-02-16T02:54:34;6.27;;;4.40;;
2850;SDS011;1433;49.976;8.342;2024-02-16T02:57:00;5.20;;;4.70;;
2850;SDS011;1433;49.976;8.342;2024-02-16T02:59:27;8.73;;;6.00;;
2850;SDS011;1433;49.976;8.342;2024-02-16T03:01:53;8.60;;;5.07;;
2850;SDS011;1433;49.976;8.342;2024-02-16T03:04:18;6.57;;;4.60;;
2850;SDS011;1433;49.976;8.342;2024-02-16T03:06:44;5.90;;;4.50;;
2850;SDS011;1433;49.976;8.342;2024-02-16T03:09:10;5.30;;;4.80;;
2850;SDS011;1433;49.976;8.342;2024-02-16T03:11:38;5.67;;;4.60;;
2850;SDS011;1433;49.976;8.342;2024-02-16T03:14:04;5.33;;;4.17;;
2850;SDS011;1433;49.976;8.342;2024-02-16T03:16:30;5.90;;;5.40;;
2850;SDS011;1433;49.976;8.342;2024-02-16T03:18:56;4.57;;;4.07;;
2850;SDS011;1433;49.976;8.342;2024-02-16T03:21:22;5.30;;;4.80;;
2850;SDS011;1433;49.976;8.342;2024-02-16T03:23:48;6.77;;;4.30;;
2850;SDS011;1433;49.976;8.342;2024-02-16T03:26:14;4.33;;;3.57;;
2850;SDS011;1433;49.976;8.342;2024-02-16T03:28:47;4.90;;;4.40;;
2850;SDS011;1433;49.976;8.342;2024-02-16T03:31:20;7.23;;;4.83;;
2850;SDS011;1433;49.976;8.342;2024-02-16T03:33:47;5.23;;;4.73;;
2850;SDS011;1433;49.976;8.342;2024-02-16T03:36:14;5.30;;;4.80;;
2850;SDS011;1433;49.976;8.342;2024-02-16T03:38:46;5.53;;;5.00;;
2850;SDS011;1433;49.976;8.342;2024-02-16T03:41:17;6.97;;;4.37;;
2850;SDS011;1433;49.976;8.342;2024-02-16T03:43:44;7.57;;;4.40;;
2850;SDS011;1433;49.976;8.342;2024-02-16T03:46:10;6.43;;;4.90;;
2850;SDS011;1433;49.976;8.342;2024-02-16T03:48:36;8.27;;;5.30;;
2850;SDS011;1433;49.976;8.342;2024-02-16T03:51:03;5.57;;;3.77;;
2850;SDS011;1433;49.976;8.342;2024-02-16T03:53:29;10.33;;;5.07;;
2850;SDS011;1433;49.976;8.342;2024-02-16T03:55:55;7.27;;;4.90;;
2850;SDS011;1433;49.976;8.342;2024-02-16T03:58:21;7.23;;;5.80;;
2850;SDS011;1433;49.976;8.342;2024-02-16T04:00:47;4.97;;;4.00;;
2850;SDS011;1433;49.976;8.342;2024-02-16T04:03:14;5.23;;;4.83;;
2850;SDS011;1433;49.976;8.342;2024-02-16T04:05:40;7.27;;;5.03;;
2850;SDS011;1433;49.976;8.342;2024-02-16T04:08:06;7.43;;;5.37;;
2850;SDS011;1433;49.976;8.342;2024-02-16T04:10:35;14.33;;;6.93;;
2850;SDS011;1433;49.976;8.342;2024-02-16T04:13:01;7.90;;;6.20;;
2850;SDS011;1433;49.976;8.342;2024-02-16T04:15:27;4.90;;;4.40;;
2850;SDS011;1433;49.976;8.342;2024-02-16T04:17:53;5.90;;;4.50;;
2850;SDS011;1433;49.976;8.342;2024-02-16T04:20:19;5.97;;;4.37;;
2850;SDS011;1433;49.976;8.342;2024-02-16T04:22:45;9.97;;;4.73;;
2850;SDS011;1433;49.976;8.342;2024-02-16T04:25:11;7.37;;;5.00;;
2850;SDS011;1433;49.976;8.342;2024-02-16T04:27:37;6.60;;;4.50;;
2850;SDS011;1433;49.976;8.342;2024-02-16T04:30:03;5.67;;;5.00;;
2850;SDS011;1433;49.976;8.342;2024-02-16T04:32:30;5.10;;;4.63;;
2850;SDS011;1433;49.976;8.342;2024-02-16T04:34:56;7.33;;;5.20;;
2850;SDS011;1433;49.976;8.342;2024-02-16T04:37:22;7.00;;;5.80;;
2850;SDS011;1433;49.976;8.342;2024-02-16T04:39:48;5.70;;;5.20;;
2850;SDS011;1433;49.976;8.342;2024-02-16T04:42:14;7.77;;;4.87;;
2850;SDS011;1433;49.976;8.342;2024-02-16T04:44:41;7.30;;;4.60;;
2850;SDS011;1433;49.976;8.342;2024-02-16T04:47:07;6.67;;;5.03;;
2850;SDS011;1433;49.976;8.342;2024-02-16T04:49:32;6.03;;;5.37;;
2850;SDS011;1433;49.976;8.342;2024-02-16T04:51:58;7.20;;;5.13;;
2850;SDS011;1433;49.976;8.342;2024-02-16T04:54:24;6.90;;;5.00;;
2850;SDS011;1433;49.976;8.342;2024-02-16T04:56:49;9.00;;;5.30;;
2850;SDS011;1433;49.976;8.342;2024-02-16T04:59:18;8.43;;;5.40;;
2850;SDS011;1433;49.976;8.342;2024-02-16T05:01:44;5.40;;;4.70;;
2850;SDS011;1433;49.976;8.342;2024-02-16T05:04:10;5.10;;;4.60;;
2850;SDS011;1433;49.976;8.342;2024-02-16T05:06:38;7.07;;;5.27;;
2850;SDS011;1433;49.976;8.342;2024-02-16T05:09:05;6.93;;;6.33;;
2850;SDS011;1433;49.976;8.342;2024-02-16T05:11:34;6.23;;;5.60;;
2850;SDS011;1433;49.976;8.342;2024-02-16T05:14:00;7.90;;;5.90;;
2850;SDS011;1433;49.976;8.342;2024-02-16T05:16:27;8.27;;;5.30;;
2850;SDS011;1433;49.976;8.342;2024-02-16T05:18:55;5.77;;;5.27;;
2850;SDS011;1433;49.976;8.342;2024-02-16T05:21:21;10.97;;;5.20;;
2850;SDS011;1433;49.976;8.342;2024-02-16T05:23:47;5.93;;;5.13;;
2850;SDS011;1433;49.976;8.342;2024-02-16T05:26:13;7.00;;;4.97;;
2850;SDS011;1433;49.976;8.342;2024-02-16T05:28:39;5.53;;;5.00;;
2850;SDS011;1433;49.976;8.342;2024-02-16T05:31:14;6.30;;;5.57;;
2850;SDS011;1433;49.976;8.342;2024-02-16T05:33:43;8.40;;;5.47;;
2850;SDS011;1433;49.976;8.342;2024-02-16T05:36:16;6.77;;;5.43;;
2850;SDS011;1433;49.976;8.342;2024-02-16T05:38:55;7.83;;;5.00;;
2850;SDS011;1433;49.976;8.342;2024-02-16T05:41:21;7.90;;;5.80;;
2850;SDS011;1433;49.976;8.342;2024-02-16T05:43:47;7.30;;;6.63;;
2850;SDS011;1433;49.976;8.342;2024-02-16T05:46:17;8.40;;;6.63;;
2850;SDS011;1433;49.976;8.342;2024-02-16T05:48:43;8.57;;;6.73;;
2850;SDS011;1433;49.976;8.342;2024-02-16T05:51:10;7.93;;;5.47;;
2850;SDS011;1433;49.976;8.342;2024-02-16T05:53:38;6.70;;;6.00;;
2850;SDS011;1433;49.976;8.342;2024-02-16T05:56:06;6.60;;;5.97;;
2850;SDS011;1433;49.976;8.342;2024-02-16T05:58:32;6.13;;;5.63;;
2850;SDS011;1433;49.976;8.342;2024-02-16T06:00:58;5.77;;;4.70;;
2850;SDS011;1433;49.976;8.342;2024-02-16T06:03:24;8.10;;;7.30;;
2850;SDS011;1433;49.976;8.342;2024-02-16T06:05:51;8.30;;;6.00;;
2850;SDS011;1433;49.976;8.342;2024-02-16T06:08:17;6.10;;;5.50;;
2850;SDS011;1433;49.976;8.342;2024-02-16T06:10:44;8.93;;;7.23;;
2850;SDS011;1433;49.976;8.342;2024-02-16T06:13:16;9.03;;;8.17;;
2850;SDS011;1433;49.976;8.342;2024-02-16T06:15:43;9.37;;;6.43;;
2850;SDS011;1433;49.976;8.342;2024-02-16T06:18:09;8.10;;;6.33;;
2850;SDS011;1433;49.976;8.342;2024-02-16T06:20:34;8.30;;;6.73;;
2850;SDS011;1433;49.976;8.342;2024-02-16T06:23:00;7.50;;;6.80;;
2850;SDS011;1433;49.976;8.342;2024-02-16T06:25:26;10.00;;;7.20;;
2850;SDS011;1433;49.976;8.342;2024-02-16T06:27:52;9.47;;;5.93;;
2850;SDS011;1433;49.976;8.342;2024-02-16T06:30:20;7.90;;;6.60;;
2850;SDS011;1433;49.976;8.342;2024-02-16T06:32:46;6.73;;;6.03;;
2850;SDS011;1433;49.976;8.342;2024-02-16T06:35:12;9.10;;;6.80;;
2850;SDS011;1433;49.976;8.342;2024-02-16T06:37:38;8.23;;;7.00;;
2850;SDS011;1433;49.976;8.342;2024-02-16T06:40:04;8.70;;;6.80;;
2850;SDS011;1433;49.976;8.342;2024-02-16T06:42:31;7.03;;;6.40;;
2850;SDS011;1433;49.976;8.342;2024-02-16T06:44:56;7.67;;;6.90;;
2850;SDS011;1433;49.976;8.342;2024-02-16T06:47:22;9.90;;;6.90;;
2850;SDS011;1433;49.976;8.342;2024-02-16T06:49:50;8.07;;;7.27;;
2850;SDS011;1433;49.976;8.342;2024-02-16T06:52:16;8.17;;;6.60;;
2850;SDS011;1433;49.976;8.342;2024-02-16T06:54:41;8.83;;;7.00;;
2850;SDS011;1433;49.976;8.342;2024-02-16T06:57:07;7.67;;;6.93;;
2850;SDS011;1433;49.976;8.342;2024-02-16T06:59:33;8.27;;;6.63;;
2850;SDS011;1433;49.976;8.342;2024-02-16T07:01:59;11.00;;;8.03;;
2850;SDS011;1433;49.976;8.342;2024-02-16T07:04:24;8.50;;;6.70;;
2850;SDS011;1433;49.976;8.342;2024-02-16T07:06:50;6.80;;;6.20;;
2850;SDS011;1433;49.976;8.342;2024-02-16T07:09:15;8.70;;;7.40;;
2850;SDS011;1433;49.976;8.342;2024-02-16T07:11:41;9.00;;;7.03;;
2850;SDS011;1433;49.976;8.342;2024-02-16T07:14:07;7.67;;;6.93;;
2850;SDS011;1433;49.976;8.342;2024-02-16T07:16:34;7.77;;;6.97;;
2850;SDS011;1433;49.976;8.342;2024-02-16T07:18:59;11.30;;;8.77;;
2850;SDS011;1433;49.976;8.342;2024-02-16T07:21:25;8.73;;;7.50;;
2850;SDS011;1433;49.976;8.342;2024-02-16T07:23:55;8.60;;;7.77;;
2850;SDS011;1433;49.976;8.342;2024-02-16T07:26:21;8.30;;;7.50;;
2850;SDS011;1433;49.976;8.342;2024-02-16T07:28:47;8.40;;;7.00;;
2850;SDS011;1433;49.976;8.342;2024-02-16T07:31:12;8.77;;;7.20;;
2850;SDS011;1433;49.976;8.342;2024-02-16T07:33:39;8.00;;;6.77;;
2850;SDS011;1433;49.976;8.342;2024-02-16T07:36:05;8.13;;;7.33;;
2850;SDS011;1433;49.976;8.342;2024-02-16T07:38:31;11.27;;;7.40;;
2850;SDS011;1433;49.976;8.342;2024-02-16T07:40:57;7.00;;;6.30;;
2850;SDS011;1433;49.976;8.342;2024-02-16T07:43:23;6.50;;;5.80;;
2850;SDS011;1433;49.976;8.342;2024-02-16T07:45:49;8.73;;;6.87;;
2850;SDS011;1433;49.976;8.342;2024-02-16T07:48:15;7.90;;;6.10;;
2850;SDS011;1433;49.976;8.342;2024-02-16T07:50:41;7.47;;;6.77;;
2850;SDS011;1433;49.976;8.342;2024-02-16T07:53:07;7.80;;;6.27;;
2850;SDS011;1433;49.976;8.342;2024-02-16T07:55:32;8.93;;;6.00;;
2850;SDS011;1433;49.976;8.342;2024-02-16T07:57:58;7.50;;;6.60;;
2850;SDS011;1433;49.976;8.342;2024-02-16T08:00:24;13.40;;;7.53;;
2850;SDS011;1433;49.976;8.342;2024-02-16T08:02:50;6.90;;;6.20;;
2850;SDS011;1433;49.976;8.342;2024-02-16T08:05:16;8.00;;;6.10;;
2850;SDS011;1433;49.976;8.342;2024-02-16T08:07:44;7.87;;;6.30;;
2850;SDS011;1433;49.976;8.342;2024-02-16T08:10:12;11.87;;;7.27;;
2850;SDS011;1433;49.976;8.342;2024-02-16T08:12:38;6.13;;;5.57;;
2850;SDS011;1433;49.976;8.342;2024-02-16T08:15:05;9.60;;;6.80;;
2850;SDS011;1433;49.976;8.342;2024-02-16T08:17:36;7.17;;;6.47;;
2850;SDS011;1433;49.976;8.342;2024-02-16T08:20:02;8.43;;;6.57;;
2850;SDS011;1433;49.976;8.342;2024-02-16T08:22:28;11.63;;;6.53;;
2850;SDS011;1433;49.976;8.342;2024-02-16T08:24:54;9.60;;;7.33;;
2850;SDS011;1433;49.976;8.342;2024-02-16T08:27:20;8.37;;;7.57;;
2850;SDS011;1433;49.976;8.342;2024-02-16T08:29:46;7.93;;;6.17;;
2850;SDS011;1433;49.976;8.342;2024-02-16T08:32:12;7.13;;;6.53;;
2850;SDS011;1433;49.976;8.342;2024-02-16T08:34:38;11.70;;;7.83;;
2850;SDS011;1433;49.976;8.342;2024-02-16T08:37:04;8.30;;;6.60;;
2850;SDS011;1433;49.976;8.342;2024-02-16T08:39:31;8.50;;;6.77;;
2850;SDS011;1433;49.976;8.342;2024-02-16T08:41:57;9.93;;;6.63;;
2850;SDS011;1433;49.976;8.342;2024-02-16T08:44:23;8.37;;;6.67;;
2850;SDS011;1433;49.976;8.342;2024-02-16T08:46:50;11.30;;;7.20;;
2850;SDS011;1433;49.976;8.342;2024-02-16T08:49:16;11.17;;;6.90;;
2850;SDS011;1433;49.976;8.342;2024-02-16T08:51:42;7.90;;;6.00;;
2850;SDS011;1433;49.976;8.342;2024-02-16T08:54:08;9.43;;;6.37;;
2850;SDS011;1433;49.976;8.342;2024-02-16T08:56:35;8.43;;;6.90;;
2850;SDS011;1433;49.976;8.342;2024-02-16T08:59:01;9.00;;;6.80;;
2850;SDS011;1433;49.976;8.342;2024-02-16T09:01:37;9.60;;;8.03;;
2850;SDS011;1433;49.976;8.342;2024-02-16T09:04:04;8.80;;;5.80;;
2850;SDS011;1433;49.976;8.342;2024-02-16T09:06:30;7.17;;;6.47;;
2850;SDS011;1433;49.976;8.342;2024-02-16T09:08:56;8.60;;;7.70;;
2850;SDS011;1433;49.976;8.342;2024-02-16T09:11:22;8.97;;;7.50;;
2850;SDS011;1433;49.976;8.342;2024-02-16T09:13:49;9.40;;;6.83;;
2850;SDS011;1433;49.976;8.342;2024-02-16T09:16:15;7.50;;;6.70;;
2850;SDS011;1433;49.976;8.342;2024-02-16T09:18:41;6.93;;;6.27;;
2850;SDS011;1433;49.976;8.342;2024-02-16T09:21:07;7.63;;;6.80;;
2850;SDS011;1433;49.976;8.342;2024-02-16T09:23:37;9.70;;;6.10;;
2850;SDS011;1433;49.976;8.342;2024-02-16T09:26:03;6.57;;;5.53;;
2850;SDS011;1433;49.976;8.342;2024-02-16T09:28:29;7.30;;;5.83;;
2850;SDS011;1433;49.976;8.342;2024-02-16T09:30:55;9.63;;;6.50;;
2850;SDS011;1433;49.976;8.342;2024-02-16T09:33:22;9.50;;;7.07;;
2850;SDS011;1433;49.976;8.342;2024-02-16T09:35:48;6.73;;;5.50;;
2850;SDS011;1433;49.976;8.342;2024-02-16T09:38:14;8.23;;;5.90;;
2850;SDS011;1433;49.976;8.342;2024-02-16T09:40:40;7.20;;;6.00;;
2850;SDS011;1433;49.976;8.342;2024-02-16T09:43:05;8.20;;;7.13;;
2850;SDS011;1433;49.976;8.342;2024-02-16T09:45:32;5.93;;;5.33;;
2850;SDS011;1433;49.976;8.342;2024-02-16T09:47:58;9.40;;;5.73;;
2850;SDS011;1433;49.976;8.342;2024-02-16T09:50:25;7.90;;;5.90;;
2850;SDS011;1433;49.976;8.342;2024-02-16T09:52:52;11.13;;;6.07;;
2850;SDS011;1433;49.976;8.342;2024-02-16T09:55:19;10.80;;;6.60;;
2850;SDS011;1433;49.976;8.342;2024-02-16T09:57:45;8.23;;;6.10;;
2850;SDS011;1433;49.976;8.342;2024-02-16T10:00:12;6.23;;;5.13;;
2850;SDS011;1433;49.976;8.342;2024-02-16T10:02:45;6.90;;;6.20;;
2850;SDS011;1433;49.976;8.342;2024-02-16T10:05:19;6.93;;;5.50;;
2850;SDS011;1433;49.976;8.342;2024-02-16T10:07:46;6.90;;;4.93;;
2850;SDS011;1433;49.976;8.342;2024-02-16T10:10:25;5.57;;;5.03;;
2850;SDS011;1433;49.976;8.342;2024-02-16T10:13:05;9.73;;;6.67;;
2850;SDS011;1433;49.976;8.342;2024-02-16T10:15:34;11.63;;;6.50;;
2850;SDS011;1433;49.976;8.342;2024-02-16T10:18:01;7.40;;;6.23;;
2850;SDS011;1433;49.976;8.342;2024-02-16T10:20:28;12.47;;;5.67;;
2850;SDS011;1433;49.976;8.342;2024-02-16T10:25:34;7.87;;;6.07;;
2850;SDS011;1433;49.976;8.342;2024-02-16T10:28:10;7.40;;;5.07;;
2850;SDS011;1433;49.976;8.342;2024-02-16T10:30:40;7.80;;;6.07;;
2850;SDS011;1433;49.976;8.342;2024-02-16T10:33:09;6.10;;;5.50;;
2850;SDS011;1433;49.976;8.342;2024-02-16T10:35:37;7.77;;;5.23;;
2850;SDS011;1433;49.976;8.342;2024-02-16T10:38:04;5.53;;;5.03;;
2850;SDS011;1433;49.976;8.342;2024-02-16T10:40:38;13.83;;;5.63;;
2850;SDS011;1433;49.976;8.342;2024-02-16T10:43:05;7.03;;;5.87;;
2850;SDS011;1433;49.976;8.342;2024-02-16T10:45:35;8.60;;;6.17;;
2850;SDS011;1433;49.976;8.342;2024-02-16T10:48:02;9.47;;;6.57;;
2850;SDS011;1433;49.976;8.342;2024-02-16T10:50:31;7.67;;;6.57;;
2850;SDS011;1433;49.976;8.342;2024-02-16T10:53:00;7.20;;;6.43;;
2850;SDS011;1433;49.976;8.342;2024-02-16T10:55:48;7.30;;;6.13;;
2850;SDS011;1433;49.976;8.342;2024-02-16T10:58:16;8.07;;;5.50;;
2850;SDS011;1433;49.976;8.342;2024-02-16T11:00:52;5.97;;;5.37;;
2850;SDS011;1433;49.976;8.342;2024-02-16T11:03:21;6.80;;;5.40;;
2850;SDS011;1433;49.976;8.342;2024-02-16T11:05:51;6.60;;;5.97;;
2850;SDS011;1433;49.976;8.342;2024-02-16T11:08:19;8.63;;;5.53;;
2850;SDS011;1433;49.976;8.342;2024-02-16T11:10:55;7.70;;;6.50;;
2850;SDS011;1433;49.976;8.342;2024-02-16T11:13:26;6.63;;;6.00;;
2850;SDS011;1433;49.976;8.342;2024-02-16T11:15:56;7.13;;;5.87;;
2850;SDS011;1433;49.976;8.342;2024-02-16T11:18:27;5.90;;;4.30;;
2850;SDS011;1433;49.976;8.342;2024-02-16T11:20:54;9.80;;;5.70;;
2850;SDS011;1433;49.976;8.342;2024-02-16T11:23:24;6.97;;;6.00;;
2850;SDS011;1433;49.976;8.342;2024-02-16T11:26:04;7.77;;;4.83;;
2850;SDS011;1433;49.976;8.342;2024-02-16T11:28:34;9.57;;;4.80;;
2850;SDS011;1433;49.976;8.342;2024-02-16T11:31:01;7.07;;;4.20;;
2850;SDS011;1433;49.976;8.342;2024-02-16T11:33:28;9.00;;;6.20;;
2850;SDS011;1433;49.976;8.342;2024-02-16T11:35:54;6.80;;;5.70;;
2850;SDS011;1433;49.976;8.342;2024-02-16T11:38:22;7.57;;;5.23;;
2850;SDS011;1433;49.976;8.342;2024-02-16T11:43:25;7.17;;;5.10;;
2850;SDS011;1433;49.976;8.342;2024-02-16T11:45:51;10.63;;;7.37;;
2850;SDS011;1433;49.976;8.342;2024-02-16T11:48:25;4.50;;;4.07;;
2850;SDS011;1433;49.976;8.342;2024-02-16T11:51:04;6.57;;;5.40;;
2850;SDS011;1433;49.976;8.342;2024-02-16T11:53:31;6.73;;;5.87;;
2850;SDS011;1433;49.976;8.342;2024-02-16T11:55:57;6.43;;;5.83;;
2850;SDS011;1433;49.976;8.342;2024-02-16T11:58:24;6.93;;;4.70;;
2850;SDS011;1433;49.976;8.342;2024-02-16T12:00:50;6.70;;;4.90;;
2850;SDS011;1433;49.976;8.342;2024-02-16T12:03:20;8.80;;;4.83;;
2850;SDS011;1433;49.976;8.342;2024-02-16T12:05:53;6.13;;;5.53;;
2850;SDS011;1433;49.976;8.342;2024-02-16T12:08:21;8.23;;;4.30;;
2850;SDS011;1433;49.976;8.342;2024-02-16T12:10:47;5.93;;;4.10;;
2850;SDS011;1433;49.976;8.342;2024-02-16T12:13:17;10.10;;;6.80;;
2850;SDS011;1433;49.976;8.342;2024-02-16T12:15:47;6.20;;;3.23;;
2850;SDS011;1433;49.976;8.342;2024-02-16T12:18:20;5.33;;;3.10;;
2850;SDS011;1433;49.976;8.342;2024-02-16T12:23:45;5.17;;;3.50;;
2850;SDS011;1433;49.976;8.342;2024-02-16T12:26:10;4.23;;;3.10;;
2850;SDS011;1433;49.976;8.342;2024-02-16T12:28:36;4.40;;;2.90;;
2850;SDS011;1433;49.976;8.342;2024-02-16T12:31:02;3.13;;;2.43;;
2850;SDS011;1433;49.976;8.342;2024-02-16T12:33:29;2.90;;;2.70;;
2850;SDS011;1433;49.976;8.342;2024-02-16T12:35:55;4.07;;;3.50;;
2850;SDS011;1433;49.976;8.342;2024-02-16T12:38:21;3.67;;;2.77;;
2850;SDS011;1433;49.976;8.342;2024-02-16T12:40:46;3.37;;;3.07;;
2850;SDS011;1433;49.976;8.342;2024-02-16T12:43:12;3.53;;;3.17;;
2850;SDS011;1433;49.976;8.342;2024-02-16T12:45:39;4.70;;;3.00;;
2850;SDS011;1433;49.976;8.342;2024-02-16T12:48:06;7.27;;;2.50;;
2850;SDS011;1433;49.976;8.342;2024-02-16T12:50:32;2.33;;;2.10;;
2850;SDS011;1433;49.976;8.342;2024-02-16T12:52:58;3.40;;;2.63;;
2850;SDS011;1433;49.976;8.342;2024-02-16T12:55:27;3.23;;;2.83;;
2850;SDS011;1433;49.976;8.342;2024-02-16T12:57:53;4.70;;;2.40;;
2850;SDS011;1433;49.976;8.342;2024-02-16T13:00:19;2.50;;;1.93;;
2850;SDS011;1433;49.976;8.342;2024-02-16T13:02:44;2.93;;;2.63;;
2850;SDS011;1433;49.976;8.342;2024-02-16T13:05:10;5.27;;;2.20;;
2850;SDS011;1433;49.976;8.342;2024-02-16T13:07:37;3.57;;;2.53;;
2850;SDS011;1433;49.976;8.342;2024-02-16T13:10:05;4.63;;;2.90;;
2850;SDS011;1433;49.976;8.342;2024-02-16T13:12:40;3.23;;;2.70;;
2850;SDS011;1433;49.976;8.342;2024-02-16T13:15:08;2.57;;;2.30;;
2850;SDS011;1433;49.976;8.342;2024-02-16T13:17:34;4.20;;;3.10;;
2850;SDS011;1433;49.976;8.342;2024-02-16T13:20:00;13.20;;;2.17;;
2850;SDS011;1433;49.976;8.342;2024-02-16T13:22:35;5.50;;;2.50;;
2850;SDS011;1433;49.976;8.342;2024-02-16T13:25:05;4.67;;;1.87;;
2850;SDS011;1433;49.976;8.342;2024-02-16T13:27:32;5.20;;;2.40;;
2850;SDS011;1433;49.976;8.342;2024-02-16T13:29:59;3.97;;;2.47;;
2850;SDS011;1433;49.976;8.342;2024-02-16T13:32:25;2.07;;;1.87;;
2850;SDS011;1433;49.976;8.342;2024-02-16T13:34:51;3.63;;;2.10;;
2850;SDS011;1433;49.976;8.342;2024-02-16T13:37:17;4.30;;;2.47;;
2850;SDS011;1433;49.976;8.342;2024-02-16T13:39:43;2.93;;;2.30;;
2850;SDS011;1433;49.976;8.342;2024-02-16T13:42:09;8.97;;;3.60;;
2850;SDS011;1433;49.976;8.342;2024-02-16T13:44:35;5.03;;;2.10;;
2850;SDS011;1433;49.976;8.342;2024-02-16T13:47:01;7.80;;;2.37;;
2850;SDS011;1433;49.976;8.342;2024-02-16T13:49:27;4.80;;;2.50;;
2850;SDS011;1433;49.976;8.342;2024-02-16T13:51:53;2.50;;;2.23;;
2850;SDS011;1433;49.976;8.342;2024-02-16T13:54:19;3.10;;;2.10;;
2850;SDS011;1433;49.976;8.342;2024-02-16T13:56:46;3.07;;;2.43;;
2850;SDS011;1433;49.976;8.342;2024-02-16T13:59:12;4.67;;;2.30;;
2850;SDS011;1433;49.976;8.342;2024-02-16T14:01:37;6.83;;;2.80;;
2850;SDS011;1433;49.976;8.342;2024-02-16T14:04:03;7.00;;;2.60;;
2850;SDS011;1433;49.976;8.342;2024-02-16T14:06:29;3.23;;;2.70;;
2850;SDS011;1433;49.976;8.342;2024-02-16T14:08:58;3.90;;;2.53;;
2850;SDS011;1433;49.976;8.342;2024-02-16T14:11:24;2.50;;;2.00;;
2850;SDS011;1433;49.976;8.342;2024-02-16T14:13:49;4.53;;;2.70;;
2850;SDS011;1433;49.976;8.342;2024-02-16T14:16:16;3.10;;;2.80;;
2850;SDS011;1433;49.976;8.342;2024-02-16T14:18:42;2.63;;;2.20;;
2850;SDS011;1433;49.976;8.342;2024-02-16T14:21:08;2.90;;;2.60;;
2850;SDS011;1433;49.976;8.342;2024-02-16T14:23:34;9.37;;;2.70;;
2850;SDS011;1433;49.976;8.342;2024-02-16T14:25:59;3.23;;;2.23;;
2850;SDS011;1433;49.976;8.342;2024-02-16T14:28:25;2.63;;;2.43;;
2850;SDS011;1433;49.976;8.342;2024-02-16T14:30:51;2.90;;;2.07;;
2850;SDS011;1433;49.976;8.342;2024-02-16T14:33:17;2.50;;;2.30;;
2850;SDS011;1433;49.976;8.342;2024-02-16T14:35:43;2.40;;;2.17;;
2850;SDS011;1433;49.976;8.342;2024-02-16T14:38:09;3.00;;;2.10;;
2850;SDS011;1433;49.976;8.342;2024-02-16T14:40:37;8.60;;;2.53;;
2850;SDS011;1433;49.976;8.342;2024-02-16T14:43:04;3.07;;;2.77;;
2850;SDS011;1433;49.976;8.342;2024-02-16T14:45:29;3.47;;;2.40;;
2850;SDS011;1433;49.976;8.342;2024-02-16T14:47:55;3.20;;;2.03;;
2850;SDS011;1433;49.976;8.342;2024-02-16T14:50:23;2.47;;;2.30;;
2850;SDS011;1433;49.976;8.342;2024-02-16T14:52:49;4.57;;;2.27;;
2850;SDS011;1433;49.976;8.342;2024-02-16T14:55:15;3.77;;;3.40;;
2850;SDS011;1433;49.976;8.342;2024-02-16T14:57:42;2.83;;;2.20;;
2850;SDS011;1433;49.976;8.342;2024-02-16T15:00:11;3.47;;;3.17;;
2850;SDS011;1433;49.976;8.342;2024-02-16T15:02:38;2.43;;;2.23;;
2850;SDS011;1433;49.976;8.342;2024-02-16T15:05:06;3.33;;;2.43;;
2850;SDS011;1433;49.976;8.342;2024-02-16T15:07:32;11.40;;;3.53;;
2850;SDS011;1433;49.976;8.342;2024-02-16T15:09:58;2.97;;;2.60;;
2850;SDS011;1433;49.976;8.342;2024-02-16T15:12:24;5.37;;;3.07;;
2850;SDS011;1433;49.976;8.342;2024-02-16T15:14:50;3.87;;;3.00;;
2850;SDS011;1433;49.976;8.342;2024-02-16T15:17:16;3.07;;;2.77;;
2850;SDS011;1433;49.976;8.342;2024-02-16T15:19:42;3.53;;;3.20;;
2850;SDS011;1433;49.976;8.342;2024-02-16T15:22:08;5.17;;;3.27;;